createdAt,value
2023-05-07T00:01:22.776Z,100979.73
2023-05-07T00:03:52.678Z,100977.86
2023-05-07T00:06:23.436Z,100981.31
2023-05-07T00:08:53.297Z,100975.30
2023-05-07T00:11:23.144Z,100978.75
2023-05-07T00:13:53.381Z,100980.56
2023-05-07T00:16:24.161Z,100975.20
2023-05-07T00:18:54.638Z,100981.31
2023-05-07T00:21:27.126Z,100979.42
2023-05-07T00:23:57.136Z,100976.70
2023-05-07T00:26:27.241Z,100975.83
2023-05-07T00:28:57.774Z,100980.11
2023-05-07T00:31:27.583Z,100972.88
2023-05-07T00:33:57.205Z,100969.97
2023-05-07T00:36:27.335Z,100969.73
2023-05-07T00:38:58.249Z,100966.96
2023-05-07T00:41:28.368Z,100973.69
2023-05-07T00:43:59.298Z,100971.16
2023-05-07T00:46:30.901Z,100971.75
2023-05-07T00:49:01.955Z,100967.18
2023-05-07T00:51:33.751Z,100971.41
2023-05-07T00:54:05.714Z,100965.02
2023-05-07T00:56:34.601Z,100970.09
2023-05-07T00:59:05.160Z,100965.52
2023-05-07T01:01:35.459Z,100964.42
2023-05-07T01:04:05.210Z,100966.02
2023-05-07T01:06:36.715Z,100964.75
2023-05-07T01:09:06.631Z,100958.53
2023-05-07T01:11:37.561Z,100956.61
2023-05-07T01:14:08.705Z,100955.52
2023-05-07T01:16:41.863Z,100956.26
2023-05-07T01:19:16.584Z,100956.83
2023-05-07T01:21:49.015Z,100956.56
2023-05-07T01:24:20.465Z,100950.14
2023-05-07T01:26:50.768Z,100957.04
2023-05-07T01:29:21.907Z,100958.42
2023-05-07T01:31:54.167Z,100957.31
2023-05-07T01:34:25.834Z,100951.72
2023-05-07T01:36:58.339Z,100954.95
2023-05-07T01:39:32.174Z,100952.02
2023-05-07T01:42:02.534Z,100953.39
2023-05-07T01:44:33.055Z,100949.61
2023-05-07T01:47:04.605Z,100956.30
2023-05-07T01:49:34.937Z,100948.86
2023-05-07T01:52:06.002Z,100948.41
2023-05-07T01:54:36.399Z,100946.26
2023-05-07T01:57:07.555Z,100944.16
2023-05-07T01:59:38.068Z,100938.56
2023-05-07T02:02:08.078Z,100940.74
2023-05-07T02:04:38.510Z,100938.64
2023-05-07T02:07:08.564Z,100934.70
2023-05-07T02:09:39.352Z,100925.44
2023-05-07T02:12:09.887Z,100932.12
2023-05-07T02:14:40.823Z,100928.98
2023-05-07T02:17:11.552Z,100934.01
2023-05-07T02:19:42.507Z,100933.56
2023-05-07T02:22:13.019Z,100927.77
2023-05-07T02:24:45.191Z,100930.97
2023-05-07T02:27:15.283Z,100924.17
2023-05-07T02:29:46.247Z,100929.84
2023-05-07T02:32:16.809Z,100929.39
2023-05-07T02:34:47.705Z,100928.91
2023-05-07T02:37:18.240Z,100918.00
2023-05-07T02:39:48.971Z,100923.66
2023-05-07T02:42:19.704Z,100924.86
2023-05-07T02:44:50.438Z,100921.72
2023-05-07T02:47:21.169Z,100922.91
2023-05-07T02:49:51.898Z,100926.92
2023-05-07T02:52:22.838Z,100926.27
2023-05-07T02:54:53.370Z,100935.39
2023-05-07T02:57:23.271Z,100933.94
2023-05-07T02:59:53.185Z,100926.48
2023-05-07T03:02:24.137Z,100931.14
2023-05-07T03:04:55.473Z,100932.34
2023-05-07T03:07:26.373Z,100931.84
2023-05-07T03:09:56.735Z,100937.34
2023-05-07T03:12:27.880Z,100935.84
2023-05-07T03:14:58.142Z,100935.20
2023-05-07T03:17:28.145Z,100933.73
2023-05-07T03:19:58.227Z,100935.73
2023-05-07T03:22:28.766Z,100936.73
2023-05-07T03:24:59.283Z,100940.39
2023-05-07T03:27:29.600Z,100935.24
2023-05-07T03:30:00.335Z,100942.55
2023-05-07T03:32:31.512Z,100941.73
2023-05-07T03:35:01.593Z,100946.20
2023-05-07T03:37:31.719Z,100939.24
2023-05-07T03:40:02.889Z,100941.73
2023-05-07T03:42:35.876Z,100946.20
2023-05-07T03:45:10.161Z,100950.51
2023-05-07T03:47:41.452Z,100946.05
2023-05-07T03:50:13.374Z,100957.66
2023-05-07T03:52:43.272Z,100959.30
2023-05-07T03:55:14.217Z,100962.77
2023-05-07T03:57:46.176Z,100965.91
2023-05-07T04:00:20.822Z,100968.38
2023-05-07T04:02:51.116Z,100970.68
2023-05-07T04:05:29.639Z,100967.03
2023-05-07T04:08:03.866Z,100965.68
2023-05-07T04:10:44.206Z,100969.83
2023-05-07T04:13:14.846Z,100975.59
2023-05-07T04:15:47.112Z,100978.73
2023-05-07T04:18:18.072Z,100977.39
2023-05-07T04:20:51.251Z,100973.20
2023-05-07T04:23:22.201Z,100970.68
2023-05-07T04:25:52.525Z,100977.75
2023-05-07T04:28:43.907Z,100974.03
2023-05-07T04:31:14.436Z,100971.31
2023-05-07T04:33:45.580Z,100979.87
2023-05-07T04:36:16.928Z,100983.11
2023-05-07T04:38:52.576Z,100985.34
2023-05-07T04:41:23.098Z,100986.75
2023-05-07T04:43:54.041Z,100982.65
2023-05-07T04:46:25.458Z,100982.87
2023-05-07T04:48:55.908Z,100981.42
2023-05-07T04:51:26.262Z,100973.83
2023-05-07T04:53:57.367Z,100985.66
2023-05-07T04:56:31.006Z,100976.20
2023-05-07T04:59:01.750Z,100980.84
2023-05-07T05:01:32.257Z,100981.84
2023-05-07T05:04:03.141Z,100988.12
2023-05-07T05:06:33.707Z,100989.48
2023-05-07T05:09:05.578Z,100996.97
2023-05-07T05:11:37.215Z,100990.77
2023-05-07T05:14:08.356Z,100990.26
2023-05-07T05:16:39.264Z,100993.07
2023-05-07T05:19:09.417Z,100986.84
2023-05-07T05:21:40.586Z,100984.45
2023-05-07T05:24:12.309Z,100982.52
2023-05-07T05:26:42.763Z,100973.97
2023-05-07T05:29:13.822Z,100973.81
2023-05-07T05:31:45.152Z,100987.23
2023-05-07T05:34:15.246Z,100977.02
2023-05-07T05:36:45.793Z,100987.34
2023-05-07T05:39:18.557Z,100980.59
2023-05-07T05:41:49.081Z,100975.13
2023-05-07T05:44:20.658Z,100981.78
2023-05-07T05:46:51.348Z,100974.42
2023-05-07T05:49:22.309Z,100973.02
2023-05-07T05:51:52.841Z,100977.56
2023-05-07T05:54:24.636Z,100969.95
2023-05-07T05:56:55.121Z,100970.77
2023-05-07T05:59:26.036Z,100981.45
2023-05-07T06:01:56.411Z,100972.00
2023-05-07T06:04:26.717Z,100978.77
2023-05-07T06:06:57.434Z,100973.39
2023-05-07T06:09:28.170Z,100973.16
2023-05-07T06:12:00.687Z,100972.31
2023-05-07T06:14:31.885Z,100975.75
2023-05-07T06:17:02.591Z,100972.41
2023-05-07T06:19:32.529Z,100968.86
2023-05-07T06:22:03.038Z,100966.72
2023-05-07T06:24:33.998Z,100969.92
2023-05-07T06:27:04.518Z,100972.28
2023-05-07T06:29:35.242Z,100975.49
2023-05-07T06:32:11.233Z,100978.54
2023-05-07T06:34:43.618Z,100966.87
2023-05-07T06:37:14.003Z,100967.58
2023-05-07T06:39:55.482Z,100962.45
2023-05-07T06:42:27.137Z,100956.50
2023-05-07T06:45:00.748Z,100961.52
2023-05-07T06:47:33.160Z,100970.00
2023-05-07T06:50:03.671Z,100968.59
2023-05-07T06:52:36.019Z,100965.73
2023-05-07T06:55:09.814Z,100963.70
2023-05-07T06:57:40.964Z,100958.34
2023-05-07T07:00:16.052Z,100967.51
2023-05-07T07:02:53.516Z,100961.34
2023-05-07T07:05:24.833Z,100964.28
2023-05-07T07:07:55.384Z,100961.60
2023-05-07T07:10:26.110Z,100966.89
2023-05-07T07:12:57.052Z,100974.17
2023-05-07T07:15:28.373Z,100970.67
2023-05-07T07:17:59.333Z,100961.20
2023-05-07T07:20:30.453Z,100963.87
2023-05-07T07:23:00.972Z,100964.34
2023-05-07T07:25:31.505Z,100964.81
2023-05-07T07:28:01.621Z,100962.81
2023-05-07T07:30:32.373Z,100973.44
2023-05-07T07:33:03.960Z,100977.07
2023-05-07T07:35:36.893Z,100972.37
2023-05-07T07:38:08.883Z,100969.30
2023-05-07T07:40:39.186Z,100970.02
2023-05-07T07:43:09.871Z,100972.81
2023-05-07T07:45:41.262Z,100968.58
2023-05-07T07:48:11.435Z,100969.83
2023-05-07T07:50:45.615Z,100971.17
2023-05-07T07:53:18.994Z,100974.38
2023-05-07T07:55:50.128Z,100971.38
2023-05-07T07:58:22.829Z,100967.08
2023-05-07T08:00:53.227Z,100964.88
2023-05-07T08:03:24.467Z,100963.48
2023-05-07T08:05:57.977Z,100956.05
2023-05-07T08:08:28.903Z,100953.00
2023-05-07T08:10:59.239Z,100952.41
2023-05-07T08:13:33.449Z,100949.34
2023-05-07T08:16:05.413Z,100946.51
2023-05-07T08:18:36.347Z,100943.22
2023-05-07T08:21:07.296Z,100937.43
2023-05-07T08:23:38.022Z,100933.27
2023-05-07T08:26:10.190Z,100932.85
2023-05-07T08:28:41.332Z,100933.78
2023-05-07T08:31:12.150Z,100929.03
2023-05-07T08:33:44.020Z,100928.56
2023-05-07T08:36:14.360Z,100926.25
2023-05-07T08:38:46.316Z,100926.08
2023-05-07T08:41:16.819Z,100926.71
2023-05-07T08:43:51.275Z,100931.36
2023-05-07T08:46:23.891Z,100935.20
2023-05-07T08:48:57.841Z,100928.78
2023-05-07T08:51:28.785Z,100918.83
2023-05-07T08:53:59.512Z,100918.10
2023-05-07T08:56:33.521Z,100918.98
2023-05-07T08:59:04.343Z,100924.13
2023-05-07T09:01:36.543Z,100933.13
2023-05-07T09:04:09.859Z,100931.53
2023-05-07T09:06:42.610Z,100929.64
2023-05-07T09:09:18.498Z,100924.53
2023-05-07T09:11:48.977Z,100909.91
2023-05-07T09:14:24.021Z,100908.86
2023-05-07T09:16:55.785Z,100906.95
2023-05-07T09:19:27.312Z,100902.62
2023-05-07T09:22:03.098Z,100903.16
2023-05-07T09:24:38.632Z,100914.28
2023-05-07T09:27:13.719Z,100908.58
2023-05-07T09:29:45.817Z,100905.56
2023-05-07T09:32:17.378Z,100899.61
2023-05-07T09:34:47.723Z,100895.23
2023-05-07T09:37:18.426Z,100896.30
2023-05-07T09:39:50.178Z,100891.92
2023-05-07T09:42:27.594Z,100878.05
2023-05-07T09:45:01.898Z,100882.08
2023-05-07T09:47:40.150Z,100882.33
2023-05-07T09:50:13.765Z,100883.92
2023-05-07T09:52:46.806Z,100884.67
2023-05-07T09:55:19.160Z,100878.97
2023-05-07T09:57:48.499Z,100869.95
2023-05-07T10:00:22.003Z,100871.84
2023-05-07T10:02:54.094Z,100866.91
2023-05-07T10:05:33.971Z,100869.02
2023-05-07T10:08:05.942Z,100872.50
2023-05-07T10:10:39.124Z,100871.89
2023-05-07T10:13:12.157Z,100857.73
2023-05-07T10:15:45.707Z,100863.13
2023-05-07T10:18:16.496Z,100860.36
2023-05-07T10:20:50.236Z,100857.98
2023-05-07T10:23:24.945Z,100852.77
2023-05-07T10:26:01.068Z,100844.57
2023-05-07T10:28:38.503Z,100854.56
2023-05-07T10:31:25.145Z,100849.33
2023-05-07T10:33:57.879Z,100846.56
2023-05-07T10:36:29.252Z,100844.03
2023-05-07T10:39:00.003Z,100843.16
2023-05-07T10:41:30.920Z,100840.38
2023-05-07T10:44:02.882Z,100843.87
2023-05-07T10:46:36.118Z,100832.63
2023-05-07T10:49:15.610Z,100832.88
2023-05-07T10:52:16.635Z,100830.36
2023-05-07T10:55:26.024Z,100825.89
2023-05-07T10:58:32.395Z,100822.83
2023-05-07T11:01:54.457Z,100819.19
2023-05-07T11:04:35.398Z,100819.05
2023-05-07T11:07:32.956Z,100818.98
2023-05-07T11:10:09.759Z,100814.28
2023-05-07T11:12:55.572Z,100815.31
2023-05-07T11:15:49.626Z,100811.18
2023-05-07T11:18:49.957Z,100813.34
2023-05-07T11:21:38.244Z,100805.09
2023-05-07T11:24:40.891Z,100809.72
2023-05-07T11:27:11.342Z,100813.79
2023-05-07T11:29:48.020Z,100818.34
2023-05-07T11:32:24.689Z,100819.68
2023-05-07T11:34:55.365Z,100817.75
2023-05-07T11:37:29.027Z,100820.19
2023-05-07T11:40:08.578Z,100808.19
2023-05-07T11:42:39.740Z,100811.11
2023-05-07T11:45:12.537Z,100810.23
2023-05-07T11:47:44.061Z,100805.81
2023-05-07T11:50:14.777Z,100799.80
2023-05-07T11:52:53.494Z,100797.07
2023-05-07T11:55:25.657Z,100791.02
2023-05-07T11:57:56.193Z,100791.22
2023-05-07T12:00:26.494Z,100793.86
2023-05-07T12:02:57.009Z,100786.70
2023-05-07T12:05:27.779Z,100792.98
2023-05-07T12:07:59.739Z,100793.18
2023-05-07T12:10:29.855Z,100784.72
2023-05-07T12:13:00.633Z,100773.80
2023-05-07T12:15:31.315Z,100774.52
2023-05-07T12:18:01.278Z,100782.09
2023-05-07T12:20:31.146Z,100769.19
2023-05-07T12:23:02.698Z,100766.05
2023-05-07T12:25:35.341Z,100774.45
2023-05-07T12:28:06.619Z,100774.36
2023-05-07T12:30:40.213Z,100760.22
2023-05-07T12:33:10.949Z,100767.29
2023-05-07T12:35:43.070Z,100758.50
2023-05-07T12:38:15.515Z,100756.18
2023-05-07T12:40:51.354Z,100756.69
2023-05-07T12:43:25.309Z,100756.02
2023-05-07T12:45:57.971Z,100753.69
2023-05-07T12:48:28.092Z,100752.47
2023-05-07T12:51:00.623Z,100751.86
2023-05-07T12:53:31.776Z,100744.67
2023-05-07T12:56:02.339Z,100756.28
2023-05-07T12:58:34.684Z,100755.48
2023-05-07T13:01:07.847Z,100746.30
2023-05-07T13:03:40.040Z,100748.30
2023-05-07T13:06:12.803Z,100740.33
2023-05-07T13:08:43.951Z,100739.63
2023-05-07T13:11:14.890Z,100738.37
2023-05-07T13:13:45.409Z,100729.08
2023-05-07T13:16:16.200Z,100736.19
2023-05-07T13:18:46.916Z,100722.83
2023-05-07T13:21:17.618Z,100720.89
2023-05-07T13:23:48.552Z,100717.75
2023-05-07T13:26:26.278Z,100718.58
2023-05-07T13:28:57.808Z,100718.27
2023-05-07T13:31:28.356Z,100725.84
2023-05-07T13:33:58.397Z,100717.97
2023-05-07T13:36:29.173Z,100717.47
2023-05-07T13:39:00.737Z,100715.85
2023-05-07T13:41:31.873Z,100719.98
2023-05-07T13:44:02.192Z,100719.47
2023-05-07T13:46:32.425Z,100717.06
2023-05-07T13:49:03.042Z,100714.11
2023-05-07T13:51:33.568Z,100716.94
2023-05-07T13:54:03.699Z,100717.86
2023-05-07T13:56:34.211Z,100727.25
2023-05-07T13:59:04.543Z,100720.47
2023-05-07T14:01:34.928Z,100724.30
2023-05-07T14:04:06.435Z,100724.53
2023-05-07T14:06:36.890Z,100731.38
2023-05-07T14:09:07.064Z,100720.47
2023-05-07T14:11:37.585Z,100726.84
2023-05-07T14:14:07.708Z,100725.13
2023-05-07T14:16:38.666Z,100718.25
2023-05-07T14:19:08.815Z,100725.92
2023-05-07T14:21:39.088Z,100725.41
2023-05-07T14:24:10.169Z,100722.78
2023-05-07T14:26:40.819Z,100721.77
2023-05-07T14:29:11.488Z,100723.19
2023-05-07T14:31:41.953Z,100718.02
2023-05-07T14:34:11.878Z,100721.95
2023-05-07T14:36:41.851Z,100718.00
2023-05-07T14:39:13.197Z,100714.83
2023-05-07T14:41:43.514Z,100720.36
2023-05-07T14:44:13.431Z,100723.26
2023-05-07T14:46:44.146Z,100723.62
2023-05-07T14:49:17.567Z,100726.42
2023-05-07T14:51:49.117Z,100728.13
2023-05-07T14:54:19.842Z,100728.48
2023-05-07T14:56:50.022Z,100726.66
2023-05-07T14:59:21.657Z,100722.98
2023-05-07T15:01:51.905Z,100725.78
2023-05-07T15:04:22.783Z,100723.38
2023-05-07T15:06:54.341Z,100733.24
2023-05-07T15:09:24.658Z,100725.45
2023-05-07T15:11:56.420Z,100723.39
2023-05-07T15:14:26.943Z,100734.34
2023-05-07T15:16:57.067Z,100726.24
2023-05-07T15:19:29.836Z,100726.89
2023-05-07T15:22:02.970Z,100722.61
2023-05-07T15:24:33.771Z,100716.13
2023-05-07T15:27:03.956Z,100706.10
2023-05-07T15:29:34.414Z,100708.89
2023-05-07T15:32:05.470Z,100713.87
2023-05-07T15:34:36.493Z,100704.63
2023-05-07T15:37:06.609Z,100710.13
2023-05-07T15:39:37.179Z,100710.44
2023-05-07T15:42:07.456Z,100709.34
2023-05-07T15:44:38.697Z,100711.48
2023-05-07T15:47:08.727Z,100706.31
2023-05-07T15:49:38.630Z,100709.61
2023-05-07T15:52:11.017Z,100708.88
2023-05-07T15:54:41.738Z,100708.10
2023-05-07T15:57:12.495Z,100703.23
2023-05-07T15:59:43.209Z,100703.59
2023-05-07T16:02:14.261Z,100710.19
2023-05-07T16:04:45.084Z,100714.05
2023-05-07T16:07:15.816Z,100710.33
2023-05-07T16:09:46.957Z,100706.31
2023-05-07T16:12:17.693Z,100702.84
2023-05-07T16:14:48.278Z,100703.12
2023-05-07T16:17:18.839Z,100701.31
2023-05-07T16:19:50.995Z,100694.87
2023-05-07T16:22:21.645Z,100698.20
2023-05-07T16:24:51.766Z,100692.84
2023-05-07T16:27:23.094Z,100701.05
2023-05-07T16:29:53.640Z,100703.27
2023-05-07T16:32:24.201Z,100700.33
2023-05-07T16:34:54.038Z,100699.26
2023-05-07T16:37:25.011Z,100701.23
2023-05-07T16:39:56.797Z,100699.36
2023-05-07T16:42:26.276Z,100707.28
2023-05-07T16:44:56.600Z,100704.08
2023-05-07T16:47:26.167Z,100707.38
2023-05-07T16:49:56.600Z,100707.14
2023-05-07T16:52:26.955Z,100711.72
2023-05-07T16:55:00.275Z,100714.19
2023-05-07T16:57:31.010Z,100708.50
2023-05-07T17:00:01.207Z,100706.33
2023-05-07T17:02:31.612Z,100707.70
2023-05-07T17:05:02.037Z,100705.80
2023-05-07T17:07:32.379Z,100701.47
2023-05-07T17:10:03.912Z,100699.30
2023-05-07T17:12:35.469Z,100699.58
2023-05-07T17:15:09.733Z,100711.70
2023-05-07T17:17:40.667Z,100713.31
2023-05-07T17:20:14.053Z,100713.05
2023-05-07T17:22:44.588Z,100718.98
2023-05-07T17:25:15.226Z,100715.17
2023-05-07T17:27:45.620Z,100722.97
2023-05-07T17:30:17.169Z,100716.20
2023-05-07T17:32:48.370Z,100721.28
2023-05-07T17:35:18.016Z,100728.28
2023-05-07T17:37:52.028Z,100723.62
2023-05-07T17:40:22.966Z,100728.45
2023-05-07T17:42:55.315Z,100733.53
2023-05-07T17:45:26.318Z,100729.44
2023-05-07T17:47:56.586Z,100729.94
2023-05-07T17:50:26.717Z,100738.25
2023-05-07T17:52:57.460Z,100732.50
2023-05-07T17:55:27.968Z,100738.91
2023-05-07T17:57:57.886Z,100738.02
2023-05-07T18:00:29.039Z,100749.55
2023-05-07T18:02:59.925Z,100753.20
2023-05-07T18:05:30.751Z,100748.20
2023-05-07T18:08:01.026Z,100751.64
2023-05-07T18:10:31.169Z,100742.37
2023-05-07T18:13:03.579Z,100750.36
2023-05-07T18:15:36.696Z,100754.01
2023-05-07T18:18:07.477Z,100750.13
2023-05-07T18:20:37.366Z,100760.79
2023-05-07T18:23:08.580Z,100763.06
2023-05-07T18:25:39.221Z,100763.26
2023-05-07T18:28:09.754Z,100758.53
2023-05-07T18:30:40.480Z,100754.14
2023-05-07T18:33:11.464Z,100764.55
2023-05-07T18:35:41.748Z,100760.38
2023-05-07T18:38:12.459Z,100763.00
2023-05-07T18:40:43.624Z,100767.74
2023-05-07T18:43:16.190Z,100769.79
2023-05-07T18:45:47.730Z,100768.08
2023-05-07T18:48:18.069Z,100770.69
2023-05-07T18:50:48.393Z,100776.83
2023-05-07T18:53:18.722Z,100782.13
2023-05-07T18:55:51.941Z,100775.83
2023-05-07T18:58:22.661Z,100783.59
2023-05-07T19:00:53.443Z,100775.14
2023-05-07T19:03:24.150Z,100775.63
2023-05-07T19:05:55.361Z,100773.42
2023-05-07T19:08:25.979Z,100778.48
2023-05-07T19:10:57.545Z,100777.08
2023-05-07T19:13:27.909Z,100781.09
2023-05-07T19:15:57.992Z,100780.75
2023-05-07T19:18:29.328Z,100773.16
2023-05-07T19:20:59.857Z,100777.96
2023-05-07T19:23:30.267Z,100778.45
2023-05-07T19:26:00.507Z,100777.64
2023-05-07T19:28:30.367Z,100775.44
2023-05-07T19:31:00.327Z,100779.41
2023-05-07T19:33:30.852Z,100777.78
2023-05-07T19:36:01.794Z,100764.80
2023-05-07T19:38:32.768Z,100769.61
2023-05-07T19:41:03.454Z,100772.53
2023-05-07T19:43:37.617Z,100769.26
2023-05-07T19:46:08.108Z,100775.95
2023-05-07T19:48:38.523Z,100774.55
2023-05-07T19:51:08.208Z,100773.97
2023-05-07T19:53:38.454Z,100768.27
2023-05-07T19:56:10.515Z,100771.44
2023-05-07T19:58:41.250Z,100776.23
2023-05-07T20:01:11.826Z,100777.20
2023-05-07T20:03:42.991Z,100776.04
2023-05-07T20:06:13.670Z,100783.65
2023-05-07T20:08:44.596Z,100779.95
2023-05-07T20:11:14.916Z,100776.77
2023-05-07T20:13:45.071Z,100776.91
2023-05-07T20:16:15.624Z,100777.85
2023-05-07T20:18:46.091Z,100773.89
2023-05-07T20:21:16.207Z,100774.00
2023-05-07T20:23:46.458Z,100771.20
2023-05-07T20:26:17.678Z,100774.82
2023-05-07T20:28:48.410Z,100787.34
2023-05-07T20:31:20.099Z,100782.44
2023-05-07T20:33:50.228Z,100782.53
2023-05-07T20:36:20.409Z,100780.56
2023-05-07T20:38:49.915Z,100783.13
2023-05-07T20:41:21.405Z,100777.84
2023-05-07T20:43:51.766Z,100778.77
2023-05-07T20:46:22.434Z,100782.37
2023-05-07T20:48:53.860Z,100789.72
2023-05-07T20:51:23.978Z,100794.16
2023-05-07T20:53:53.710Z,100809.06
2023-05-07T20:56:23.806Z,100798.41
2023-05-07T20:58:53.922Z,100809.01
2023-05-07T21:01:24.130Z,100804.34
2023-05-07T21:03:54.830Z,100801.52
2023-05-07T21:06:25.310Z,100801.39
2023-05-07T21:08:55.624Z,100803.94
2023-05-07T21:11:26.156Z,100796.55
2023-05-07T21:13:56.495Z,100810.66
2023-05-07T21:16:26.657Z,100811.33
2023-05-07T21:18:57.121Z,100807.45
2023-05-07T21:21:27.647Z,100815.36
2023-05-07T21:23:57.571Z,100822.22
2023-05-07T21:26:27.887Z,100826.63
2023-05-07T21:28:58.212Z,100831.84
2023-05-07T21:31:28.537Z,100832.50
2023-05-07T21:33:58.854Z,100823.86
2023-05-07T21:36:29.182Z,100821.87
2023-05-07T21:38:59.908Z,100820.67
2023-05-07T21:41:30.856Z,100820.52
2023-05-07T21:44:02.241Z,100822.22
2023-05-07T21:46:31.891Z,100818.58
2023-05-07T21:49:01.820Z,100829.51
2023-05-07T21:51:33.649Z,100823.96
2023-05-07T21:54:04.514Z,100823.57
2023-05-07T21:56:34.838Z,100818.05
2023-05-07T21:59:04.949Z,100823.25
2023-05-07T22:01:34.921Z,100819.81
2023-05-07T22:04:06.151Z,100830.37
2023-05-07T22:06:35.924Z,100826.49
2023-05-07T22:09:07.473Z,100819.33
2023-05-07T22:11:37.526Z,100818.37
2023-05-07T22:14:07.921Z,100824.36
2023-05-07T22:16:39.527Z,100819.07
2023-05-07T22:19:10.193Z,100816.23
2023-05-07T22:21:41.090Z,100823.25
2023-05-07T22:24:12.073Z,100815.28
2023-05-07T22:26:44.651Z,100815.72
2023-05-07T22:29:14.565Z,100817.39
2023-05-07T22:31:45.324Z,100815.38
2023-05-07T22:34:16.034Z,100817.65
2023-05-07T22:36:46.549Z,100816.44
2023-05-07T22:39:16.807Z,100811.75
2023-05-07T22:41:47.403Z,100808.66
2023-05-07T22:44:18.076Z,100810.13
2023-05-07T22:46:49.492Z,100810.56
2023-05-07T22:49:19.401Z,100814.70
2023-05-07T22:51:49.515Z,100818.80
2023-05-07T22:54:20.047Z,100820.27
2023-05-07T22:56:52.301Z,100812.06
2023-05-07T22:59:21.917Z,100812.72
2023-05-07T23:01:51.628Z,100817.66
2023-05-07T23:04:21.756Z,100807.61
2023-05-07T23:06:53.381Z,100812.55
2023-05-07T23:09:24.037Z,100806.81
2023-05-07T23:11:54.763Z,100811.98
2023-05-07T23:14:25.235Z,100803.77
2023-05-07T23:16:55.020Z,100799.66
2023-05-07T23:19:25.205Z,100804.61
2023-05-07T23:21:55.852Z,100787.55
2023-05-07T23:24:26.179Z,100788.20
2023-05-07T23:26:56.505Z,100786.75
2023-05-07T23:29:27.235Z,100787.17
2023-05-07T23:31:57.143Z,100787.59
2023-05-07T23:34:27.267Z,100787.41
2023-05-07T23:36:57.794Z,100797.70
2023-05-07T23:39:27.702Z,100803.88
2023-05-07T23:41:58.433Z,100807.58
2023-05-07T23:44:28.556Z,100798.98
2023-05-07T23:46:59.088Z,100812.74
2023-05-07T23:49:30.034Z,100810.50
2023-05-07T23:52:00.479Z,100819.34
2023-05-07T23:54:30.459Z,100804.72
2023-05-07T23:57:02.917Z,100802.89
2023-05-07T23:59:31.545Z,100810.06
